createdAt,value
2022-09-10T00:03:23.045Z,14.20
2022-09-10T00:08:26.421Z,14.00
2022-09-10T00:13:29.398Z,13.90
2022-09-10T00:18:32.365Z,13.80
2022-09-10T00:23:35.488Z,13.80
2022-09-10T00:28:38.757Z,13.60
2022-09-10T00:33:42.362Z,13.60
2022-09-10T00:38:45.231Z,13.60
2022-09-10T00:43:57.132Z,13.40
2022-09-10T00:49:03.025Z,13.40
2022-09-10T00:54:06.666Z,13.40
2022-09-10T00:59:10.647Z,13.40
2022-09-10T01:04:13.954Z,13.40
2022-09-10T01:09:17.886Z,13.30
2022-09-10T01:14:29.693Z,13.30
2022-09-10T01:19:59.062Z,13.20
2022-09-10T01:25:17.772Z,13.20
2022-09-10T01:30:35.052Z,13.20
2022-09-10T01:35:44.763Z,13.20
2022-09-10T01:40:48.887Z,13.10
2022-09-10T01:46:10.283Z,13.00
2022-09-10T01:51:22.901Z,12.90
2022-09-10T01:57:01.082Z,12.70
2022-09-10T02:02:15.304Z,12.70
2022-09-10T02:07:24.294Z,12.50
2022-09-10T02:12:29.250Z,12.50
2022-09-10T02:17:53.771Z,12.40
2022-09-10T02:22:58.907Z,12.30
2022-09-10T02:28:02.235Z,12.20
2022-09-10T02:33:05.326Z,12.20
2022-09-10T02:38:08.754Z,12.10
2022-09-10T02:43:13.487Z,12.00
2022-09-10T02:48:17.553Z,12.00
2022-09-10T02:53:21.243Z,12.10
2022-09-10T02:58:27.611Z,12.10
2022-09-10T03:03:30.684Z,12.20
2022-09-10T03:08:35.698Z,12.20
2022-09-10T03:13:38.634Z,12.20
2022-09-10T03:18:42.125Z,12.20
2022-09-10T03:23:49.002Z,12.30
2022-09-10T03:28:56.112Z,12.30
2022-09-10T03:34:01.631Z,12.20
2022-09-10T03:39:06.226Z,12.20
2022-09-10T03:44:09.336Z,12.20
2022-09-10T03:49:12.456Z,12.10
2022-09-10T03:54:15.997Z,12.10
2022-09-10T03:59:19.988Z,12.10
2022-09-10T04:04:27.215Z,12.00
2022-09-10T04:09:32.576Z,11.90
2022-09-10T04:14:36.306Z,11.90
2022-09-10T04:19:42.746Z,11.90
2022-09-10T04:24:46.950Z,12.00
2022-09-10T04:29:49.853Z,12.00
2022-09-10T04:34:54.474Z,12.00
2022-09-10T04:39:58.668Z,12.00
2022-09-10T04:45:01.748Z,12.00
2022-09-10T04:50:06.455Z,12.10
2022-09-10T04:55:11.702Z,12.10
2022-09-10T05:00:15.144Z,12.10
2022-09-10T05:05:18.562Z,12.00
2022-09-10T05:10:23.644Z,12.10
2022-09-10T05:15:27.019Z,12.10
2022-09-10T05:20:30.423Z,12.10
2022-09-10T05:25:34.679Z,12.10
2022-09-10T05:30:38.376Z,12.30
2022-09-10T05:35:42.715Z,12.40
2022-09-10T05:40:45.954Z,12.60
2022-09-10T05:45:52.054Z,12.80
2022-09-10T05:50:55.740Z,13.00
2022-09-10T05:55:58.652Z,13.10
2022-09-10T06:01:02.461Z,13.20
2022-09-10T06:06:07.290Z,13.40
2022-09-10T06:11:12.767Z,13.50
2022-09-10T06:16:20.439Z,13.90
2022-09-10T06:21:28.122Z,14.10
2022-09-10T06:26:33.128Z,14.30
2022-09-10T06:31:41.085Z,14.40
2022-09-10T06:36:46.816Z,14.60
2022-09-10T06:41:50.081Z,14.70
2022-09-10T06:47:50.881Z,14.80
2022-09-10T06:52:34.284Z,14.90
2022-09-10T06:57:40.681Z,14.80
2022-09-10T07:02:44.785Z,15.00
2022-09-10T07:07:48.068Z,15.20
2022-09-10T07:12:51.767Z,15.50
2022-09-10T07:17:56.626Z,15.60
2022-09-10T07:23:01.034Z,15.70
2022-09-10T07:28:06.738Z,16.10
2022-09-10T07:33:12.701Z,16.30
2022-09-10T07:38:20.771Z,16.60
2022-09-10T07:43:25.153Z,16.80
2022-09-10T07:48:30.803Z,17.10
2022-09-10T07:53:34.550Z,17.40
2022-09-10T07:58:39.749Z,17.50
2022-09-10T08:03:45.761Z,17.70
2022-09-10T08:08:51.580Z,18.00
2022-09-10T08:13:57.003Z,18.10
2022-09-10T08:19:03.659Z,18.20
2022-09-10T08:24:10.681Z,18.30
2022-09-10T08:29:16.042Z,18.60
2022-09-10T08:34:19.057Z,18.50
2022-09-10T08:39:33.771Z,18.60
2022-09-10T08:44:58.869Z,18.60
2022-09-10T08:50:13.950Z,18.70
2022-09-10T08:55:19.737Z,18.60
2022-09-10T09:00:30.006Z,18.60
2022-09-10T09:05:40.666Z,18.60
2022-09-10T09:10:50.754Z,18.30
2022-09-10T09:16:18.507Z,18.40
2022-09-10T09:21:36.902Z,18.30
2022-09-10T09:26:42.131Z,18.80
2022-09-10T09:31:53.275Z,19.00
2022-09-10T09:37:01.054Z,19.00
2022-09-10T09:42:19.774Z,19.30
2022-09-10T09:47:24.963Z,19.20
2022-09-10T09:52:31.948Z,19.20
2022-09-10T09:57:34.903Z,19.60
2022-09-10T10:02:38.424Z,19.20
2022-09-10T10:07:41.392Z,19.40
2022-09-10T10:12:50.514Z,19.70
2022-09-10T10:17:53.432Z,19.50
2022-09-10T10:22:56.438Z,19.80
2022-09-10T10:27:59.455Z,19.80
2022-09-10T10:33:04.076Z,19.90
2022-09-10T10:38:29.191Z,19.60
2022-09-10T10:44:19.961Z,20.00
2022-09-10T10:49:31.176Z,20.30
2022-09-10T10:54:57.875Z,20.50
2022-09-10T11:00:14.111Z,20.20
2022-09-10T11:05:38.758Z,20.30
2022-09-10T11:10:53.447Z,19.90
2022-09-10T11:16:04.469Z,19.60
2022-09-10T11:21:19.576Z,19.70
2022-09-10T11:26:28.373Z,19.30
2022-09-10T11:31:35.441Z,19.60
2022-09-10T11:36:50.136Z,19.60
2022-09-10T11:41:55.114Z,19.50
2022-09-10T11:46:58.055Z,19.50
2022-09-10T11:52:03.114Z,19.50
2022-09-10T11:57:11.222Z,20.10
2022-09-10T12:02:43.652Z,20.70
2022-09-10T12:07:52.559Z,21.00
2022-09-10T12:12:55.467Z,21.20
2022-09-10T12:18:16.501Z,21.30
2022-09-10T12:23:29.508Z,21.40
2022-09-10T12:28:53.509Z,21.60
2022-09-10T12:33:57.892Z,21.30
2022-09-10T12:39:25.857Z,21.20
2022-09-10T12:44:34.903Z,21.10
2022-09-10T12:49:48.051Z,21.10
2022-09-10T12:55:00.502Z,21.10
2022-09-10T13:00:24.023Z,20.90
2022-09-10T13:05:34.421Z,20.80
2022-09-10T13:10:37.804Z,20.50
2022-09-10T13:15:49.611Z,20.80
2022-09-10T13:20:52.753Z,20.30
2022-09-10T13:26:44.982Z,19.40
2022-09-10T13:31:55.252Z,19.20
2022-09-10T13:37:10.077Z,17.80
2022-09-10T13:42:42.700Z,17.40
2022-09-10T13:48:10.054Z,16.80
2022-09-10T13:53:16.228Z,16.90
2022-09-10T13:58:28.498Z,16.60
2022-09-10T14:03:36.832Z,16.70
2022-09-10T14:08:58.802Z,16.30
2022-09-10T14:14:25.331Z,15.90
2022-09-10T14:19:36.895Z,16.30
2022-09-10T14:24:55.313Z,16.40
2022-09-10T14:30:27.380Z,16.50
2022-09-10T14:35:43.344Z,17.10
2022-09-10T14:40:48.416Z,17.80
2022-09-10T14:45:51.845Z,18.30
2022-09-10T14:51:14.595Z,18.60
2022-09-10T14:56:30.816Z,18.90
2022-09-10T15:01:35.501Z,19.10
2022-09-10T15:06:40.424Z,19.10
2022-09-10T15:11:56.005Z,19.10
2022-09-10T15:16:58.922Z,19.40
2022-09-10T15:22:01.886Z,19.60
2022-09-10T15:27:04.831Z,19.60
2022-09-10T15:32:07.747Z,19.90
2022-09-10T15:37:11.261Z,20.10
2022-09-10T15:42:14.511Z,20.00
2022-09-10T15:47:17.454Z,19.90
2022-09-10T15:52:20.488Z,19.60
2022-09-10T15:57:23.456Z,19.60
2022-09-10T16:02:26.448Z,19.60
2022-09-10T16:07:29.794Z,19.40
2022-09-10T16:12:33.039Z,18.90
2022-09-10T16:17:36.187Z,18.80
2022-09-10T16:22:39.150Z,19.00
2022-09-10T16:27:43.411Z,19.00
2022-09-10T16:32:46.495Z,18.90
2022-09-10T16:37:51.195Z,18.70
2022-09-10T16:42:54.726Z,18.50
2022-09-10T16:48:03.442Z,18.40
2022-09-10T16:53:11.821Z,18.30
2022-09-10T16:58:14.987Z,18.00
2022-09-10T17:03:17.989Z,18.00
2022-09-10T17:08:20.926Z,17.80
2022-09-10T17:13:23.861Z,17.70
2022-09-10T17:18:26.777Z,17.40
2022-09-10T17:23:29.689Z,17.30
2022-09-10T17:28:33.369Z,17.20
2022-09-10T17:33:36.360Z,16.90
2022-09-10T17:38:39.448Z,16.90
2022-09-10T17:43:46.056Z,16.70
2022-09-10T17:48:49.796Z,16.40
2022-09-10T17:53:55.379Z,16.40
2022-09-10T17:59:03.872Z,16.20
2022-09-10T18:04:08.327Z,16.20
2022-09-10T18:09:11.818Z,16.10
2022-09-10T18:14:19.158Z,16.00
2022-09-10T18:19:22.208Z,16.00
2022-09-10T18:24:25.345Z,15.90
2022-09-10T18:29:30.382Z,15.90
2022-09-10T18:34:33.311Z,15.80
2022-09-10T18:39:36.398Z,15.80
2022-09-10T18:44:39.840Z,15.80
2022-09-10T18:49:45.217Z,15.70
2022-09-10T18:54:48.283Z,15.70
2022-09-10T18:59:54.200Z,15.70
2022-09-10T19:05:14.720Z,15.70
2022-09-10T19:10:17.755Z,15.70
2022-09-10T19:15:20.813Z,15.60
2022-09-10T19:20:25.268Z,15.60
2022-09-10T19:25:28.246Z,15.70
2022-09-10T19:30:35.207Z,15.70
2022-09-10T19:35:38.837Z,15.70
2022-09-10T19:40:41.756Z,15.70
2022-09-10T19:45:45.604Z,15.70
2022-09-10T19:50:48.864Z,15.70
2022-09-10T19:55:51.898Z,15.70
2022-09-10T20:00:55.852Z,15.50
2022-09-10T20:05:59.772Z,15.60
2022-09-10T20:11:06.127Z,15.60
2022-09-10T20:16:10.717Z,15.70
2022-09-10T20:21:20.218Z,15.70
2022-09-10T20:26:31.612Z,15.60
2022-09-10T20:31:36.736Z,15.60
2022-09-10T20:36:42.440Z,15.50
2022-09-10T20:41:46.091Z,15.60
2022-09-10T20:46:49.032Z,15.50
2022-09-10T20:51:52.754Z,15.60
2022-09-10T20:56:55.655Z,15.50
2022-09-10T21:01:58.601Z,15.50
2022-09-10T21:07:01.653Z,15.50
2022-09-10T21:12:06.145Z,15.40
2022-09-10T21:17:09.119Z,15.50
2022-09-10T21:22:12.282Z,15.40
2022-09-10T21:27:15.249Z,15.40
2022-09-10T21:32:18.612Z,15.40
2022-09-10T21:37:21.537Z,15.30
2022-09-10T21:42:24.527Z,15.30
2022-09-10T21:47:27.484Z,15.30
2022-09-10T21:52:30.422Z,15.30
2022-09-10T21:57:33.357Z,15.30
2022-09-10T22:02:36.365Z,15.20
2022-09-10T22:07:39.467Z,15.10
2022-09-10T22:12:42.346Z,15.00
2022-09-10T22:17:45.254Z,14.90
2022-09-10T22:22:49.513Z,14.80
2022-09-10T22:27:52.461Z,14.80
2022-09-10T22:32:58.988Z,14.50
2022-09-10T22:38:01.946Z,14.60
2022-09-10T22:43:04.997Z,14.50
2022-09-10T22:48:07.937Z,14.50
2022-09-10T22:53:10.832Z,14.40
2022-09-10T22:58:14.186Z,14.30
2022-09-10T23:03:17.183Z,14.20
2022-09-10T23:08:20.198Z,14.20
2022-09-10T23:13:23.042Z,14.10
2022-09-10T23:18:25.892Z,14.00
2022-09-10T23:23:28.756Z,14.00
2022-09-10T23:28:32.025Z,14.00
2022-09-10T23:33:35.375Z,14.10
2022-09-10T23:38:39.310Z,14.00
2022-09-10T23:43:43.084Z,14.10
2022-09-10T23:48:46.473Z,14.10
2022-09-10T23:53:50.252Z,14.20
2022-09-10T23:58:53.295Z,14.20
